Time;durP1;ratioP1;P1;durP2;ratioP2;P2;SDS_P1;SDS_P2;PMS_P1;PMS_P2;Temp;Humidity;BMP_temperature;BMP_pressure;BME280_temperature;BME280_humidity;BME280_pressure;Samples;Min_cycle;Max_cycle;Signal;HPM_P1;HPM_P2
2023/08/18 00:01:19;;;;;;;7.38;2.38;;;16.50;99.90;;;;;;5017604;28;20416;-68
2023/08/18 00:04:00;;;;;;;4.70;2.15;;;16.50;99.90;;;;;;5021385;28;20040;-68
2023/08/18 00:06:26;;;;;;;6.20;2.40;;;;;;;;;;5020946;28;20046;-68
2023/08/18 00:08:52;;;;;;;5.63;2.22;;;;;;;;;;5019511;28;20398;-68
2023/08/18 00:11:18;;;;;;;6.22;2.08;;;;;;;;;;5015333;28;20125;-68
2023/08/18 00:13:43;;;;;;;4.75;2.47;;;16.50;99.90;;;;;;5020687;28;20415;-68
2023/08/18 00:16:09;;;;;;;6.60;2.25;;;16.50;99.90;;;;;;5017307;28;20033;-69
2023/08/18 00:18:34;;;;;;;4.50;2.35;;;16.50;99.90;;;;;;4996995;28;20666;-68
2023/08/18 00:21:00;;;;;;;3.83;1.80;;;16.50;99.90;;;;;;5015214;28;20419;-68
2023/08/18 00:23:26;;;;;;;5.65;1.98;;;;;;;;;;5019978;28;20772;-68
2023/08/18 00:25:52;;;;;;;3.33;1.90;;;;;;;;;;5018215;28;20053;-68
2023/08/18 00:28:18;;;;;;;6.35;2.20;;;;;;;;;;5018715;28;20152;-68
2023/08/18 00:30:43;;;;;;;6.15;2.22;;;16.50;99.90;;;;;;5017491;28;20049;-68
2023/08/18 00:33:34;;;;;;;3.60;1.67;;;16.50;99.90;;;;;;5000782;28;20051;-68
2023/08/18 00:36:00;;;;;;;3.28;1.80;;;16.40;99.90;;;;;;5001692;28;20045;-68
2023/08/18 00:38:25;;;;;;;5.25;1.63;;;16.40;99.90;;;;;;5000732;28;20135;-68
2023/08/18 00:40:51;;;;;;;5.68;1.75;;;;;;;;;;4997857;28;20045;-68
2023/08/18 00:43:17;;;;;;;9.20;2.58;;;;;;;;;;4998185;28;20053;-68
2023/08/18 00:45:43;;;;;;;5.20;1.65;;;;;;;;;;5018397;28;20045;-68
2023/08/18 00:48:09;;;;;;;3.42;1.60;;;16.30;99.90;;;;;;5002692;28;20045;-68
2023/08/18 00:50:35;;;;;;;2.85;1.58;;;16.40;99.90;;;;;;4986519;28;20049;-68
2023/08/18 00:53:01;;;;;;;4.05;1.58;;;;;;;;;;5012520;28;20046;-68
2023/08/18 00:55:29;;;;;;;2.53;1.40;;;16.30;99.90;;;;;;5019550;28;20033;-68
2023/08/18 00:57:55;;;;;;;3.53;1.50;;;16.30;99.90;;;;;;5014810;28;20033;-68
2023/08/18 01:00:23;;;;;;;2.67;0.88;;;16.40;99.90;;;;;;4998944;28;20071;-68
2023/08/18 01:02:50;;;;;;;3.45;1.48;;;16.30;99.90;;;;;;5012563;28;20096;-68
2023/08/18 01:05:16;;;;;;;3.42;1.50;;;;;;;;;;5000243;28;20045;-68
2023/08/18 01:07:43;;;;;;;2.42;1.33;;;;;;;;;;5018005;28;20045;-68
2023/08/18 01:10:09;;;;;;;2.53;1.20;;;;;;;;;;5020508;28;20052;-68
2023/08/18 01:13:04;;;;;;;1.92;1.20;;;16.30;99.90;;;;;;5017555;28;20037;-68
2023/08/18 01:15:35;;;;;;;6.00;1.33;;;16.40;99.90;;;;;;5018955;28;20156;-68
2023/08/18 01:18:01;;;;;;;3.22;1.00;;;16.30;99.90;;;;;;4998069;28;20512;-68
2023/08/18 01:20:28;;;;;;;5.85;1.30;;;16.30;99.90;;;;;;5015265;28;20038;-68
2023/08/18 01:23:00;;;;;;;3.75;2.45;;;16.50;99.90;;;;;;4998583;28;20096;-68
2023/08/18 01:25:27;;;;;;;2.03;1.33;;;16.30;99.90;;;;;;5016932;28;20038;-68
2023/08/18 01:27:54;;;;;;;6.20;1.63;;;16.30;99.90;;;;;;4999470;28;20045;-68
2023/08/18 01:30:20;;;;;;;2.40;1.30;;;16.40;99.90;;;;;;5015295;28;20064;-68
2023/08/18 01:33:04;;;;;;;5.38;1.10;;;16.30;99.90;;;;;;5017320;28;20044;-68
2023/08/18 01:35:30;;;;;;;4.75;1.38;;;16.30;99.90;;;;;;4996364;28;20038;-68
2023/08/18 01:37:58;;;;;;;3.65;1.13;;;16.20;99.90;;;;;;5001660;28;20491;-68
2023/08/18 01:40:27;;;;;;;3.65;1.45;;;16.20;99.90;;;;;;4999706;28;20128;-68
2023/08/18 01:42:53;;;;;;;3.63;1.27;;;16.20;99.90;;;;;;5014401;28;20491;-68
2023/08/18 01:45:19;;;;;;;1.98;1.08;;;;;;;;;;5015992;28;20045;-68
2023/08/18 01:47:45;;;;;;;2.78;1.20;;;;;;;;;;4997150;28;20619;-68
2023/08/18 01:50:11;;;;;;;5.35;1.38;;;16.10;99.90;;;;;;4999206;28;20038;-67
2023/08/18 01:52:37;;;;;;;2.60;1.42;;;;;;;;;;4999346;28;20412;-68
2023/08/18 01:55:04;;;;;;;3.05;1.20;;;;;;;;;;4996767;28;20037;-68
2023/08/18 01:57:30;;;;;;;4.38;2.13;;;;;;;;;;4998707;28;20041;-68
2023/08/18 01:59:55;;;;;;;6.70;1.45;;;16.20;99.90;;;;;;5018267;28;20080;-68
2023/08/18 02:02:21;;;;;;;4.40;1.90;;;16.10;99.90;;;;;;5000342;28;20037;-68
2023/08/18 02:04:46;;;;;;;4.75;1.80;;;16.10;99.90;;;;;;5003913;28;20060;-68
2023/08/18 02:07:12;;;;;;;5.80;2.20;;;;;;;;;;5020081;28;20401;-68
2023/08/18 02:09:38;;;;;;;6.85;2.22;;;;;;;;;;4997794;28;20096;-68
2023/08/18 02:12:04;;;;;;;4.03;1.75;;;;;;;;;;5017684;28;20170;-68
2023/08/18 02:14:30;;;;;;;4.32;1.70;;;;;;;;;;5004384;28;20068;-68
2023/08/18 02:16:57;;;;;;;7.30;2.13;;;16.20;99.90;;;;;;5020023;28;20700;-68
2023/08/18 02:19:22;;;;;;;4.75;1.90;;;16.10;99.90;;;;;;5020306;28;20033;-68
2023/08/18 02:21:48;;;;;;;4.38;2.08;;;16.20;99.90;;;;;;5019383;28;20823;-68
2023/08/18 02:24:14;;;;;;;3.53;1.45;;;;;;;;;;5017939;28;20583;-68
2023/08/18 02:26:40;;;;;;;5.07;1.90;;;;;;;;;;5005937;28;20472;-68
2023/08/18 02:29:06;;;;;;;4.70;2.08;;;;;;;;;;5017749;28;20041;-68
2023/08/18 02:31:31;;;;;;;5.15;2.22;;;16.20;99.90;;;;;;5019313;28;20467;-68
2023/08/18 02:33:57;;;;;;;3.50;1.75;;;16.20;99.90;;;;;;5021817;28;20046;-68
2023/08/18 02:36:23;;;;;;;3.00;1.70;;;;;;;;;;5018327;28;20038;-68
2023/08/18 02:38:49;;;;;;;10.20;2.17;;;16.30;99.90;;;;;;5016441;28;20091;-68
2023/08/18 02:41:17;;;;;;;5.18;2.28;;;;;;;;;;5004249;28;20049;-68
2023/08/18 02:43:49;;;;;;;2.95;2.28;;;16.20;99.90;;;;;;5019023;28;20045;-68
2023/08/18 02:46:16;;;;;;;3.60;2.08;;;;;;;;;;5021717;28;20148;-68
2023/08/18 02:48:41;;;;;;;5.80;2.20;;;16.30;99.90;;;;;;5003116;28;20053;-68
2023/08/18 02:51:08;;;;;;;8.27;2.50;;;16.20;99.90;;;;;;5021367;28;20037;-68
2023/08/18 02:53:35;;;;;;;6.63;2.38;;;;;;;;;;5001942;28;20080;-68
2023/08/18 02:56:01;;;;;;;7.80;2.20;;;16.30;99.90;;;;;;5022099;28;20037;-68
2023/08/18 02:58:28;;;;;;;7.78;2.40;;;16.30;99.90;;;;;;5020156;28;20045;-68
2023/08/18 03:00:55;;;;;;;9.00;3.17;;;16.20;99.90;;;;;;5001621;28;20070;-68
2023/08/18 03:03:21;;;;;;;5.35;2.47;;;;;;;;;;5017360;28;20083;-68
2023/08/18 03:05:47;;;;;;;6.25;2.90;;;16.30;99.90;;;;;;5022198;28;20044;-68
2023/08/18 03:08:13;;;;;;;7.93;3.00;;;;;;;;;;5022326;28;20487;-68
2023/08/18 03:10:39;;;;;;;6.10;2.40;;;;;;;;;;5019133;28;20102;-68
2023/08/18 03:13:05;;;;;;;5.07;2.67;;;;;;;;;;5001894;28;20488;-68
2023/08/18 03:15:31;;;;;;;6.60;3.33;;;;;;;;;;5020371;28;20561;-68
2023/08/18 03:17:57;;;;;;;7.38;3.03;;;;;;;;;;5018691;28;20120;-68
2023/08/18 03:20:23;;;;;;;8.57;2.58;;;;;;;;;;5002382;28;20080;-68
2023/08/18 03:22:49;;;;;;;9.55;2.83;;;16.30;99.90;;;;;;5016597;28;20120;-68
2023/08/18 03:25:15;;;;;;;5.57;2.80;;;;;;;;;;5019143;28;20044;-68
2023/08/18 03:27:41;;;;;;;10.02;3.72;;;16.10;99.90;;;;;;5001584;28;20087;-68
2023/08/18 03:30:07;;;;;;;4.85;2.50;;;16.30;99.90;;;;;;5020430;28;20100;-68
2023/08/18 03:32:32;;;;;;;10.13;3.22;;;16.30;99.90;;;;;;5020587;28;20055;-68
2023/08/18 03:34:58;;;;;;;5.47;3.42;;;16.30;99.90;;;;;;5020067;28;20030;-68
2023/08/18 03:37:24;;;;;;;8.50;3.63;;;;;;;;;;5000473;28;20066;-67
2023/08/18 03:39:54;;;;;;;5.40;2.70;;;16.40;99.90;;;;;;5001248;28;20376;-68
2023/08/18 03:42:20;;;;;;;8.57;3.53;;;;;;;;;;5024128;28;20049;-68
2023/08/18 03:44:46;;;;;;;9.85;3.53;;;;;;;;;;5001187;28;20053;-68
2023/08/18 03:47:12;;;;;;;6.78;3.30;;;16.30;99.90;;;;;;5001108;28;20045;-68
2023/08/18 03:49:38;;;;;;;5.97;3.13;;;;;;;;;;4998508;28;20487;-68
2023/08/18 03:52:04;;;;;;;7.35;3.88;;;;;;;;;;5017520;28;20064;-68
2023/08/18 03:54:30;;;;;;;6.05;3.25;;;;;;;;;;5016610;28;20099;-68
2023/08/18 03:56:56;;;;;;;10.43;3.42;;;;;;;;;;4997373;28;20057;-68
2023/08/18 03:59:22;;;;;;;6.47;3.65;;;;;;;;;;5018605;28;20056;-68
2023/08/18 04:01:48;;;;;;;6.68;3.00;;;;;;;;;;5017034;28;20049;-68
2023/08/18 04:04:13;;;;;;;9.55;3.72;;;16.30;99.90;;;;;;4999100;28;20067;-68
2023/08/18 04:06:39;;;;;;;9.32;3.35;;;;;;;;;;4997227;28;20056;-67
2023/08/18 04:09:08;;;;;;;8.20;3.88;;;16.20;99.90;;;;;;5018910;28;20049;-68
2023/08/18 04:11:34;;;;;;;8.90;3.92;;;16.30;99.90;;;;;;4994315;28;20080;-68
2023/08/18 04:14:00;;;;;;;7.72;3.70;;;16.30;99.90;;;;;;4992726;28;20904;-68
2023/08/18 04:16:26;;;;;;;10.60;3.65;;;16.30;99.90;;;;;;4996888;28;20038;-68
2023/08/18 04:18:52;;;;;;;10.45;3.83;;;;;;;;;;5015904;28;20392;-68
2023/08/18 04:21:17;;;;;;;8.57;3.90;;;16.30;99.90;;;;;;5013352;28;20042;-68
2023/08/18 04:23:43;;;;;;;9.15;4.00;;;;;;;;;;5012681;28;20816;-68
2023/08/18 04:26:12;;;;;;;7.28;3.33;;;;;;;;;;5016118;28;20041;-68
2023/08/18 04:28:38;;;;;;;11.75;4.25;;;16.20;99.90;;;;;;4997721;28;20057;-68
2023/08/18 04:31:04;;;;;;;9.63;4.43;;;;;;;;;;5012845;28;20130;-68
2023/08/18 04:33:30;;;;;;;8.23;3.72;;;;;;;;;;5013275;28;20046;-68
2023/08/18 04:35:56;;;;;;;8.43;4.28;;;;;;;;;;5015578;28;20047;-68
2023/08/18 04:38:22;;;;;;;12.93;4.75;;;;;;;;;;5015686;28;20041;-68
2023/08/18 04:40:58;;;;;;;13.18;5.22;;;16.20;99.90;;;;;;4980704;28;20126;-68
2023/08/18 04:43:24;;;;;;;11.35;4.63;;;16.20;99.90;;;;;;5001216;28;20038;-68
2023/08/18 04:45:49;;;;;;;12.77;4.38;;;16.20;99.90;;;;;;5005382;28;20404;-68
2023/08/18 04:48:15;;;;;;;10.98;4.80;;;;;;;;;;5004688;28;20044;-68
2023/08/18 04:50:41;;;;;;;9.02;4.40;;;;;;;;;;5002208;28;20042;-68
2023/08/18 04:53:07;;;;;;;9.77;4.78;;;;;;;;;;4982544;28;20105;-68
2023/08/18 04:55:36;;;;;;;8.15;4.20;;;16.20;99.90;;;;;;5004362;28;20091;-68
2023/08/18 04:58:02;;;;;;;9.20;4.88;;;16.20;99.90;;;;;;4979449;28;20064;-68
2023/08/18 05:00:28;;;;;;;9.27;5.47;;;16.20;99.90;;;;;;5005106;28;20104;-68
2023/08/18 05:02:54;;;;;;;10.48;5.43;;;16.10;99.90;;;;;;4984021;28;20037;-68
2023/08/18 05:05:20;;;;;;;10.90;4.75;;;;;;;;;;5005090;28;20045;-68
2023/08/18 05:07:46;;;;;;;9.02;4.90;;;16.20;99.90;;;;;;5004068;28;20058;-68
2023/08/18 05:10:12;;;;;;;13.90;5.13;;;;;;;;;;5007032;28;20052;-68
2023/08/18 05:12:38;;;;;;;9.57;4.85;;;16.20;99.90;;;;;;4980505;28;20057;-68
2023/08/18 05:15:04;;;;;;;7.53;4.72;;;16.20;99.90;;;;;;4986365;28;20050;-68
2023/08/18 05:17:30;;;;;;;12.18;6.25;;;;;;;;;;4985432;28;20042;-68
2023/08/18 05:19:56;;;;;;;9.13;4.95;;;;;;;;;;4996155;28;20035;-68
2023/08/18 05:22:22;;;;;;;10.52;5.32;;;16.20;99.90;;;;;;5002804;28;20094;-68
2023/08/18 05:24:49;;;;;;;7.63;4.78;;;;;;;;;;5014285;28;20586;-68
2023/08/18 05:27:15;;;;;;;9.52;5.72;;;16.10;99.90;;;;;;5001815;28;20469;-68
2023/08/18 05:29:41;;;;;;;12.80;5.75;;;16.10;99.90;;;;;;5000270;28;20111;-68
2023/08/18 05:32:07;;;;;;;11.70;5.28;;;;;;;;;;5018429;28;20141;-68
2023/08/18 05:34:33;;;;;;;9.10;4.88;;;;;;;;;;5018488;28;20042;-68
2023/08/18 05:36:59;;;;;;;8.75;5.30;;;16.40;99.90;;;;;;5021698;28;20449;-68
2023/08/18 05:39:24;;;;;;;11.65;5.78;;;16.30;99.90;;;;;;5022631;28;20038;-68
2023/08/18 05:41:50;;;;;;;10.15;5.70;;;16.30;99.90;;;;;;5021258;28;20069;-68
2023/08/18 05:44:16;;;;;;;11.18;5.80;;;;;;;;;;5022289;28;20046;-68
2023/08/18 05:46:42;;;;;;;9.85;5.53;;;;;;;;;;5014351;28;20050;-68
2023/08/18 05:49:10;;;;;;;14.93;5.78;;;16.30;99.90;;;;;;5002776;28;20056;-68
2023/08/18 05:51:35;;;;;;;10.55;5.68;;;16.30;99.90;;;;;;5018964;28;20038;-68
2023/08/18 05:54:03;;;;;;;13.93;6.45;;;16.30;99.90;;;;;;5018585;28;20102;-68
2023/08/18 05:56:29;;;;;;;13.88;6.40;;;;;;;;;;5001265;28;20123;-68
2023/08/18 05:58:55;;;;;;;11.65;6.10;;;16.40;99.90;;;;;;5004190;28;20052;-68
2023/08/18 06:01:20;;;;;;;10.68;5.75;;;16.40;99.90;;;;;;5021383;28;20557;-68
2023/08/18 06:03:46;;;;;;;13.45;6.20;;;;;;;;;;5001647;28;20045;-68
2023/08/18 06:06:12;;;;;;;11.10;5.75;;;;;;;;;;5005150;28;20471;-68
2023/08/18 06:08:38;;;;;;;15.27;6.45;;;16.40;99.90;;;;;;5023172;28;20057;-68
2023/08/18 06:11:04;;;;;;;9.85;5.97;;;;;;;;;;5021852;28;20491;-68
2023/08/18 06:13:29;;;;;;;9.65;5.72;;;16.40;99.90;;;;;;5003353;28;20511;-68
2023/08/18 06:15:55;;;;;;;11.50;5.47;;;16.40;99.90;;;;;;5019826;28;20026;-68
2023/08/18 06:18:21;;;;;;;11.20;6.93;;;16.40;99.90;;;;;;5019529;28;20495;-68
2023/08/18 06:20:47;;;;;;;11.13;7.00;;;16.50;99.90;;;;;;5018888;28;20044;-68
2023/08/18 06:23:13;;;;;;;11.07;5.80;;;;;;;;;;5020457;28;20049;-68
2023/08/18 06:25:39;;;;;;;11.18;6.70;;;16.30;99.90;;;;;;5017343;28;20037;-68
2023/08/18 06:28:07;;;;;;;11.80;6.40;;;16.50;99.90;;;;;;5007832;28;20476;-68
2023/08/18 06:30:33;;;;;;;13.35;7.53;;;16.60;99.90;;;;;;5019987;28;20058;-68
2023/08/18 06:32:59;;;;;;;11.20;7.20;;;;;;;;;;5019025;28;20043;-68
2023/08/18 06:35:25;;;;;;;11.68;7.72;;;;;;;;;;5019712;28;20060;-68
2023/08/18 06:37:51;;;;;;;12.18;8.90;;;16.50;99.90;;;;;;5020846;28;20455;-68
2023/08/18 06:40:16;;;;;;;17.50;9.60;;;16.50;99.90;;;;;;5001694;28;20041;-68
2023/08/18 06:42:42;;;;;;;13.55;8.57;;;;;;;;;;5000615;28;20125;-68
2023/08/18 06:45:08;;;;;;;13.38;8.45;;;16.60;99.90;;;;;;5018828;28;20447;-68
2023/08/18 06:47:34;;;;;;;18.33;9.98;;;;;;;;;;5015667;28;20060;-68
2023/08/18 06:50:01;;;;;;;20.85;10.38;;;;;;;;;;4976345;28;20419;-68
2023/08/18 06:52:28;;;;;;;18.08;9.52;;;16.60;99.90;;;;;;5005049;28;20046;-68
2023/08/18 06:54:53;;;;;;;14.35;9.95;;;;;;;;;;5003704;28;20148;-68
2023/08/18 06:57:20;;;;;;;15.85;9.32;;;;;;;;;;5004818;28;20127;-68
2023/08/18 06:59:46;;;;;;;19.67;10.93;;;16.60;99.90;;;;;;4998089;28;20046;-68
2023/08/18 07:02:11;;;;;;;19.85;9.75;;;16.60;99.90;;;;;;5019458;28;20041;-68
2023/08/18 07:04:37;;;;;;;18.98;10.05;;;16.70;99.90;;;;;;5018907;28;20041;-68
2023/08/18 07:07:03;;;;;;;18.75;10.65;;;;;;;;;;5021466;28;20142;-68
2023/08/18 07:09:29;;;;;;;20.40;10.00;;;16.70;99.90;;;;;;4997676;28;20798;-68
2023/08/18 07:11:55;;;;;;;16.70;9.75;;;;;;;;;;5004487;28;20042;-68
2023/08/18 07:14:20;;;;;;;14.70;9.70;;;;;;;;;;5003183;28;20030;-68
2023/08/18 07:16:46;;;;;;;18.90;10.23;;;16.70;99.90;;;;;;5016913;28;20124;-68
2023/08/18 07:19:12;;;;;;;18.23;9.85;;;16.70;99.90;;;;;;5019069;28;20496;-68
2023/08/18 07:21:37;;;;;;;19.58;10.50;;;16.70;99.90;;;;;;4994608;28;20412;-67
2023/08/18 07:24:03;;;;;;;27.42;12.00;;;16.90;99.90;;;;;;4987969;28;20222;-68
2023/08/18 07:26:29;;;;;;;20.73;11.18;;;16.90;99.90;;;;;;5002941;28;20049;-68
2023/08/18 07:28:55;;;;;;;19.55;10.68;;;;;;;;;;5004732;28;20048;-68
2023/08/18 07:31:22;;;;;;;20.70;10.60;;;;;;;;;;5003409;28;20062;-68
2023/08/18 07:33:47;;;;;;;20.88;11.65;;;16.90;99.90;;;;;;5017069;28;20038;-68
2023/08/18 07:36:13;;;;;;;25.10;11.75;;;16.90;99.90;;;;;;5009368;28;20798;-68
2023/08/18 07:38:39;;;;;;;22.50;11.15;;;;;;;;;;5007980;28;20037;-68
2023/08/18 07:41:05;;;;;;;24.90;12.68;;;16.90;99.90;;;;;;5006094;28;20046;-68
2023/08/18 07:43:31;;;;;;;28.10;12.85;;;;;;;;;;5003008;28;20060;-68
2023/08/18 07:45:57;;;;;;;20.60;11.32;;;16.90;99.90;;;;;;5007944;28;20399;-68
2023/08/18 07:48:23;;;;;;;30.08;12.43;;;16.90;99.90;;;;;;4984507;28;20042;-69
2023/08/18 07:50:49;;;;;;;25.23;11.63;;;;;;;;;;4985708;28;20089;-69
2023/08/18 07:53:15;;;;;;;23.88;11.55;;;;;;;;;;4991602;28;20069;-68
2023/08/18 07:55:41;;;;;;;28.42;11.77;;;;;;;;;;4980485;28;20491;-68
2023/08/18 07:58:07;;;;;;;26.23;12.27;;;;;;;;;;5000129;28;20049;-68
2023/08/18 08:00:33;;;;;;;27.90;11.38;;;17.10;99.90;;;;;;4985455;28;20066;-68
2023/08/18 08:02:58;;;;;;;25.83;11.25;;;17.20;99.90;;;;;;5001717;28;20519;-68
2023/08/18 08:05:24;;;;;;;24.13;11.00;;;;;;;;;;4981505;28;20069;-68
2023/08/18 08:07:51;;;;;;;24.45;10.90;;;;;;;;;;5014055;28;20045;-68
2023/08/18 08:10:17;;;;;;;20.90;9.90;;;17.30;99.90;;;;;;5017956;28;20038;-69
2023/08/18 08:12:44;;;;;;;20.48;10.23;;;17.20;99.90;;;;;;4999478;28;20056;-68
2023/08/18 08:15:13;;;;;;;18.50;10.18;;;17.30;99.90;;;;;;5011280;28;20882;-68
2023/08/18 08:17:38;;;;;;;18.33;9.35;;;17.30;99.90;;;;;;5014963;28;20049;-68
2023/08/18 08:20:10;;;;;;;19.75;8.68;;;17.60;99.90;;;;;;5014814;28;20045;-68
2023/08/18 08:22:37;;;;;;;19.30;8.80;;;17.30;99.90;;;;;;4981467;28;20042;-68
2023/08/18 08:25:03;;;;;;;17.77;8.27;;;17.50;99.90;;;;;;5015440;28;20062;-68
2023/08/18 08:27:28;;;;;;;13.02;8.02;;;17.50;99.90;;;;;;4993512;28;20046;-68
2023/08/18 08:29:54;;;;;;;16.95;8.60;;;17.50;99.90;;;;;;5012938;28;20057;-68
2023/08/18 08:32:20;;;;;;;14.75;7.65;;;;;;;;;;4993207;28;20175;-68
2023/08/18 08:34:49;;;;;;;17.42;8.60;;;17.50;99.90;;;;;;5015106;28;20042;-68
2023/08/18 08:37:16;;;;;;;14.05;6.85;;;17.50;99.90;;;;;;4999486;28;20488;-68
2023/08/18 08:39:42;;;;;;;17.80;6.97;;;;;;;;;;4997640;28;20053;-69
2023/08/18 08:42:08;;;;;;;15.85;6.53;;;17.70;99.90;;;;;;4997729;28;20057;-69
2023/08/18 08:44:34;;;;;;;12.52;6.03;;;17.60;99.90;;;;;;5009710;28;20041;-68
2023/08/18 08:47:01;;;;;;;14.43;6.50;;;17.30;99.90;;;;;;5009742;28;20435;-68
2023/08/18 08:49:31;;;;;;;15.23;6.45;;;17.60;99.90;;;;;;5016173;28;20037;-68
2023/08/18 08:52:02;;;;;;;11.63;6.30;;;17.70;99.90;;;;;;4997973;28;20096;-68
2023/08/18 08:54:30;;;;;;;18.52;7.93;;;17.80;99.90;;;;;;5007237;28;20030;-68
2023/08/18 08:56:58;;;;;;;13.48;6.57;;;17.70;99.90;;;;;;5004097;28;20044;-68
2023/08/18 08:59:24;;;;;;;16.00;7.32;;;17.90;99.90;;;;;;5001187;28;20038;-68
2023/08/18 09:01:52;;;;;;;14.50;6.78;;;17.90;99.90;;;;;;4999275;28;20733;-68
2023/08/18 09:04:18;;;;;;;13.95;6.95;;;18.00;99.90;;;;;;4984622;28;20054;-68
2023/08/18 09:07:09;;;;;;;14.75;6.57;;;17.90;99.90;;;;;;5009391;28;20042;-68
2023/08/18 09:09:35;;;;;;;19.50;8.20;;;17.90;99.90;;;;;;4998424;28;20754;-69
2023/08/18 09:12:05;;;;;;;17.58;7.25;;;;;;;;;;4984587;28;20050;-68
2023/08/18 09:14:39;;;;;;;18.92;7.97;;;18.00;99.90;;;;;;4979920;28;20038;-68
2023/08/18 09:17:05;;;;;;;18.77;7.57;;;18.00;99.90;;;;;;4987787;28;20046;-68
2023/08/18 09:19:31;;;;;;;16.95;7.80;;;;;;;;;;5020761;28;20061;-68
2023/08/18 09:21:58;;;;;;;16.42;7.50;;;18.40;99.90;;;;;;5011923;28;20081;-68
2023/08/18 09:24:25;;;;;;;15.73;7.38;;;18.40;99.90;;;;;;5012585;28;20060;-68
2023/08/18 09:26:51;;;;;;;15.48;6.85;;;;;;;;;;5016902;28;20041;-68
2023/08/18 09:29:17;;;;;;;14.63;7.28;;;;;;;;;;5020145;28;20040;-69
2023/08/18 09:31:46;;;;;;;15.35;7.00;;;18.50;99.90;;;;;;5015846;28;20061;-68
2023/08/18 09:34:21;;;;;;;13.38;6.70;;;18.60;99.90;;;;;;4999885;28;20748;-68
2023/08/18 09:36:54;;;;;;;13.05;6.78;;;18.70;99.90;;;;;;5015769;28;20072;-68
2023/08/18 09:39:20;;;;;;;11.70;7.28;;;18.70;99.90;;;;;;5011872;28;20034;-68
2023/08/18 09:41:52;;;;;;;15.27;7.22;;;18.70;99.90;;;;;;4997620;28;20207;-69
2023/08/18 09:44:18;;;;;;;14.45;7.30;;;;;;;;;;4997954;28;20049;-69
2023/08/18 09:46:49;;;;;;;14.30;7.00;;;18.70;99.90;;;;;;5006296;28;20073;-68
2023/08/18 09:49:18;;;;;;;18.55;6.72;;;18.80;99.90;;;;;;4998056;28;20056;-68
2023/08/18 09:51:46;;;;;;;15.15;7.00;;;18.90;99.90;;;;;;5011513;28;20053;-68
2023/08/18 09:54:12;;;;;;;20.52;7.38;;;18.90;99.90;;;;;;5014317;28;20543;-68
2023/08/18 09:56:41;;;;;;;15.93;7.88;;;19.00;99.90;;;;;;4998948;28;20571;-68
2023/08/18 09:59:19;;;;;;;12.57;6.53;;;19.10;99.90;;;;;;4992370;28;20042;-69
2023/08/18 10:01:48;;;;;;;17.73;6.90;;;19.10;99.90;;;;;;5005641;28;20500;-68
2023/08/18 10:04:14;;;;;;;14.73;7.07;;;;;;;;;;4990467;28;20122;-69
2023/08/18 10:06:41;;;;;;;14.32;6.75;;;19.10;99.90;;;;;;5008672;28;20050;-68
2023/08/18 10:09:08;;;;;;;16.98;8.02;;;19.00;99.90;;;;;;4995247;28;20105;-69
2023/08/18 10:11:34;;;;;;;13.90;7.35;;;19.00;99.90;;;;;;4999598;28;20534;-68
2023/08/18 10:14:01;;;;;;;12.52;7.70;;;19.10;99.90;;;;;;5013320;28;20038;-69
2023/08/18 10:16:27;;;;;;;16.10;8.55;;;19.10;99.90;;;;;;5016207;28;20571;-69
2023/08/18 10:18:56;;;;;;;15.82;9.15;;;19.10;99.90;;;;;;5004280;28;20053;-68
2023/08/18 10:21:31;;;;;;;15.10;8.38;;;19.10;99.90;;;;;;4996067;28;20045;-68
2023/08/18 10:23:57;;;;;;;20.90;8.82;;;19.10;99.90;;;;;;5018230;28;20128;-69
2023/08/18 10:26:24;;;;;;;17.08;8.75;;;19.10;99.90;;;;;;5003521;28;20052;-68
2023/08/18 10:28:50;;;;;;;16.63;9.07;;;19.10;99.90;;;;;;5016323;28;20045;-69
2023/08/18 10:31:16;;;;;;;19.88;9.18;;;19.20;99.90;;;;;;5017880;28;20128;-69
2023/08/18 10:33:48;;;;;;;21.17;9.48;;;19.20;99.90;;;;;;5002357;28;20050;-68
2023/08/18 10:36:25;;;;;;;15.73;9.55;;;19.20;99.90;;;;;;4999676;28;20409;-68
2023/08/18 10:38:54;;;;;;;17.30;9.55;;;19.30;99.90;;;;;;4996200;28;20049;-68
2023/08/18 10:41:28;;;;;;;14.90;9.00;;;19.30;99.90;;;;;;4986941;28;20108;-68
2023/08/18 10:43:56;;;;;;;17.50;9.85;;;19.40;99.90;;;;;;5014953;28;20686;-68
2023/08/18 10:46:34;;;;;;;19.40;9.90;;;19.40;99.90;;;;;;4998608;28;20054;-69
2023/08/18 10:49:00;;;;;;;14.73;9.23;;;19.50;99.90;;;;;;5017058;28;20468;-69
2023/08/18 10:51:26;;;;;;;17.92;9.57;;;19.50;99.90;;;;;;5012690;28;20049;-68
2023/08/18 10:53:52;;;;;;;16.27;9.93;;;19.60;99.90;;;;;;5013345;28;20366;-69
2023/08/18 10:56:18;;;;;;;19.80;10.32;;;;;;;;;;5011589;28;20065;-68
2023/08/18 10:58:43;;;;;;;19.70;10.18;;;19.70;99.90;;;;;;5010153;28;20041;-69
2023/08/18 11:01:10;;;;;;;19.15;9.77;;;19.80;99.90;;;;;;5017400;28;20494;-69
2023/08/18 11:03:38;;;;;;;17.15;9.88;;;19.80;99.90;;;;;;5003963;28;20083;-69
2023/08/18 11:06:04;;;;;;;15.80;9.32;;;19.90;99.90;;;;;;5000085;28;20046;-68
2023/08/18 11:08:30;;;;;;;20.27;10.18;;;20.00;99.90;;;;;;5000307;28;20046;-69
2023/08/18 11:10:56;;;;;;;18.48;10.23;;;20.10;99.90;;;;;;5012488;28;20112;-69
2023/08/18 11:13:26;;;;;;;15.07;9.60;;;20.10;99.90;;;;;;5013957;28;20038;-68
2023/08/18 11:15:53;;;;;;;15.80;9.32;;;20.00;99.90;;;;;;5012715;28;20091;-68
2023/08/18 11:18:21;;;;;;;17.95;9.95;;;20.10;99.90;;;;;;5020010;28;20046;-69
2023/08/18 11:20:48;;;;;;;16.55;9.68;;;20.00;99.90;;;;;;4999572;28;20495;-68
2023/08/18 11:23:13;;;;;;;14.43;9.90;;;20.20;99.90;;;;;;4993591;28;20120;-68
2023/08/18 11:25:39;;;;;;;19.23;9.60;;;20.20;99.90;;;;;;4994366;28;20827;-69
2023/08/18 11:28:05;;;;;;;16.65;10.10;;;20.30;99.90;;;;;;5014757;28;20029;-68
2023/08/18 11:30:32;;;;;;;14.10;9.75;;;20.40;99.90;;;;;;5017719;28;20082;-69
2023/08/18 11:32:57;;;;;;;14.18;9.75;;;20.50;99.90;;;;;;5019019;28;20080;-69
2023/08/18 11:35:25;;;;;;;15.95;9.20;;;20.50;99.90;;;;;;5006057;28;20133;-69
2023/08/18 11:37:52;;;;;;;14.23;9.63;;;20.60;99.90;;;;;;5017113;28;20104;-69
2023/08/18 11:40:21;;;;;;;12.38;9.07;;;20.60;99.90;;;;;;4996923;28;20074;-69
2023/08/18 11:42:48;;;;;;;14.35;9.48;;;20.80;99.90;;;;;;4999549;28;20111;-69
2023/08/18 11:45:17;;;;;;;17.30;9.50;;;20.70;99.90;;;;;;5014581;28;20496;-69
2023/08/18 11:47:44;;;;;;;14.90;9.80;;;20.80;99.90;;;;;;4991784;28;20101;-69
2023/08/18 11:50:12;;;;;;;10.77;8.15;;;20.80;99.90;;;;;;5002047;28;20069;-69
2023/08/18 11:52:43;;;;;;;18.02;9.43;;;20.90;99.90;;;;;;5015184;28;20052;-69
2023/08/18 11:55:09;;;;;;;15.73;9.07;;;21.10;99.90;;;;;;5012392;28;20057;-68
2023/08/18 11:57:35;;;;;;;15.00;9.27;;;21.10;99.90;;;;;;4996240;28;20497;-69
2023/08/18 12:00:10;;;;;;;11.52;8.38;;;21.10;99.90;;;;;;5020706;28;20096;-69
2023/08/18 12:02:48;;;;;;;12.30;8.50;;;21.00;99.90;;;;;;5012070;28;20123;-69
2023/08/18 12:05:22;;;;;;;12.77;8.38;;;21.30;99.90;;;;;;4994953;28;20074;-70
2023/08/18 12:07:52;;;;;;;14.10;10.35;;;21.30;99.90;;;;;;5016972;28;20200;-69
2023/08/18 12:10:18;;;;;;;12.20;9.07;;;21.50;99.90;;;;;;5015757;28;20041;-69
2023/08/18 12:12:50;;;;;;;14.93;9.75;;;21.80;99.90;;;;;;5011855;28;20038;-69
2023/08/18 12:15:15;;;;;;;10.93;9.18;;;21.80;99.90;;;;;;5015084;28;20048;-69
2023/08/18 12:17:41;;;;;;;11.63;9.82;;;23.30;99.90;;;;;;4997760;28;20041;-68
2023/08/18 12:20:07;;;;;;;17.00;8.80;;;21.80;99.90;;;;;;5001372;28;20561;-69
2023/08/18 12:22:33;;;;;;;13.20;10.05;;;21.90;99.90;;;;;;4984424;28;20404;-69
2023/08/18 12:24:58;;;;;;;16.85;11.02;;;21.90;99.90;;;;;;5022506;28;20049;-69
2023/08/18 12:27:26;;;;;;;13.05;10.27;;;22.00;99.90;;;;;;5018406;28;20046;-68
2023/08/18 12:29:52;;;;;;;12.80;8.77;;;22.10;99.90;;;;;;5021094;28;20045;-69
2023/08/18 12:32:17;;;;;;;15.70;9.27;;;22.10;99.90;;;;;;5009886;28;20050;-69
2023/08/18 12:34:43;;;;;;;11.23;9.30;;;22.10;99.90;;;;;;4994180;28;20495;-69
2023/08/18 12:37:08;;;;;;;13.15;9.77;;;22.50;99.90;;;;;;4983419;28;20141;-69
2023/08/18 12:39:34;;;;;;;15.23;9.57;;;22.40;99.90;;;;;;4992193;28;20137;-69
2023/08/18 12:41:59;;;;;;;12.68;9.55;;;22.40;99.90;;;;;;4990807;28;20080;-68
2023/08/18 12:44:25;;;;;;;12.60;9.80;;;22.30;99.90;;;;;;5011742;28;20083;-69
2023/08/18 12:46:50;;;;;;;14.27;8.68;;;22.30;99.90;;;;;;5018080;28;20137;-69
2023/08/18 12:49:16;;;;;;;14.07;9.93;;;22.70;99.90;;;;;;4997930;28;20099;-69
2023/08/18 12:51:42;;;;;;;14.38;8.93;;;22.50;99.90;;;;;;5011098;28;20054;-69
2023/08/18 12:54:07;;;;;;;12.27;8.45;;;22.60;99.90;;;;;;4995485;28;20042;-69
2023/08/18 12:56:33;;;;;;;11.13;9.43;;;22.80;99.90;;;;;;5017927;28;20048;-69
2023/08/18 12:58:58;;;;;;;13.23;8.98;;;22.80;99.90;;;;;;4994101;28;20124;-69
2023/08/18 13:01:24;;;;;;;12.52;9.60;;;22.90;99.90;;;;;;5010898;28;20184;-69
2023/08/18 13:03:49;;;;;;;12.13;9.07;;;23.00;99.90;;;;;;4991919;28;20038;-69
2023/08/18 13:06:15;;;;;;;11.95;10.10;;;23.00;99.90;;;;;;5012838;28;20041;-69
2023/08/18 13:08:40;;;;;;;12.43;10.50;;;23.10;99.90;;;;;;5008581;28;20037;-69
2023/08/18 13:11:06;;;;;;;14.98;8.88;;;23.00;99.90;;;;;;5012788;28;20183;-69